Time;durP1;ratioP1;P1;durP2;ratioP2;P2;SDS_P1;SDS_P2;PMS_P1;PMS_P2;Temp;Humidity;BMP_temperature;BMP_pressure;BME280_temperature;BME280_humidity;BME280_pressure;Samples;Min_cycle;Max_cycle;Signal;HPM_P1;HPM_P2
2022/03/31 00:02:10;;;;;;;36.90;22.70;;;9.00;99.90;;;;;;5055091;28;20177;-64
2022/03/31 00:04:38;;;;;;;28.57;20.63;;;9.00;99.90;;;;;;5054657;28;20256;-64
2022/03/31 00:07:04;;;;;;;30.57;19.43;;;8.90;99.90;;;;;;5054170;28;20193;-63
2022/03/31 00:09:30;;;;;;;34.60;21.07;;;9.00;99.90;;;;;;5053311;28;20184;-62
2022/03/31 00:11:59;;;;;;;31.43;21.53;;;9.00;99.90;;;;;;5054426;28;20173;-64
2022/03/31 00:14:26;;;;;;;31.40;19.83;;;9.00;99.90;;;;;;5054533;28;20204;-64
2022/03/31 00:16:52;;;;;;;31.07;20.20;;;9.00;99.90;;;;;;5053106;28;20175;-64
2022/03/31 00:19:17;;;;;;;30.93;20.77;;;8.90;99.90;;;;;;5054627;28;20165;-63
2022/03/31 00:21:43;;;;;;;32.73;20.37;;;8.80;99.90;;;;;;5054066;28;20165;-64
2022/03/31 00:24:08;;;;;;;32.23;21.17;;;8.70;99.90;;;;;;5054213;28;20238;-64
2022/03/31 00:26:34;;;;;;;33.00;20.27;;;8.70;99.90;;;;;;5054414;28;20229;-63
2022/03/31 00:29:00;;;;;;;31.57;20.97;;;8.70;99.90;;;;;;5054272;28;20257;-63
2022/03/31 00:31:25;;;;;;;34.07;21.53;;;8.60;99.90;;;;;;5054573;28;20625;-64
2022/03/31 00:33:51;;;;;;;32.00;20.97;;;8.60;99.90;;;;;;5054176;28;20173;-64
2022/03/31 00:36:17;;;;;;;31.53;22.07;;;8.70;99.90;;;;;;5054027;28;20177;-64
2022/03/31 00:39:28;;;;;;;35.50;21.50;;;8.70;99.90;;;;;;5053037;28;20533;-63
2022/03/31 00:41:28;;;;;;;32.83;22.37;;;8.80;99.90;;;;;;5053867;28;20176;-64
2022/03/31 00:43:54;;;;;;;50.50;31.43;;;8.90;99.90;;;;;;5054104;28;20263;-63
2022/03/31 00:46:23;;;;;;;32.43;22.83;;;8.90;99.90;;;;;;5054113;28;20216;-64
2022/03/31 00:48:48;;;;;;;32.93;22.27;;;8.80;99.90;;;;;;5054023;28;20169;-64
2022/03/31 00:51:14;;;;;;;37.23;23.60;;;8.70;99.90;;;;;;5053511;28;20648;-62
2022/03/31 00:53:40;;;;;;;35.37;21.73;;;8.70;99.90;;;;;;5053770;28;20204;-63
2022/03/31 00:56:06;;;;;;;32.47;22.40;;;8.70;99.90;;;;;;5053763;28;20248;-63
2022/03/31 00:58:33;;;;;;;30.60;21.10;;;8.70;99.90;;;;;;5053775;28;20170;-63
2022/03/31 01:00:59;;;;;;;31.87;22.43;;;8.70;99.90;;;;;;5052434;28;20177;-64
2022/03/31 01:03:24;;;;;;;33.00;22.90;;;8.70;99.90;;;;;;5053750;28;20188;-63
2022/03/31 01:05:51;;;;;;;34.33;23.03;;;8.70;99.90;;;;;;5053244;28;20211;-63
2022/03/31 01:08:17;;;;;;;37.10;23.47;;;8.80;99.90;;;;;;5053655;28;20625;-64
2022/03/31 01:10:44;;;;;;;35.13;23.67;;;8.80;99.90;;;;;;5053579;28;20656;-62
2022/03/31 01:13:10;;;;;;;40.07;24.03;;;8.80;99.90;;;;;;5053333;28;20280;-63
2022/03/31 01:15:36;;;;;;;36.37;23.17;;;8.90;99.90;;;;;;5053836;28;20208;-63
2022/03/31 01:18:02;;;;;;;37.10;24.00;;;8.90;99.90;;;;;;5053493;28;20585;-63
2022/03/31 01:20:27;;;;;;;40.57;23.87;;;8.90;99.90;;;;;;5051716;28;20271;-63
2022/03/31 01:22:53;;;;;;;38.77;23.80;;;8.90;99.90;;;;;;5053127;28;20181;-63
2022/03/31 01:25:19;;;;;;;37.57;25.03;;;8.90;99.90;;;;;;5053260;28;20217;-63
2022/03/31 01:27:46;;;;;;;36.77;24.17;;;8.90;99.90;;;;;;5052690;28;20185;-63
2022/03/31 01:30:15;;;;;;;39.93;23.33;;;8.90;99.90;;;;;;5053129;28;20169;-64
2022/03/31 01:32:44;;;;;;;35.93;23.40;;;8.90;99.90;;;;;;5053111;28;20249;-63
2022/03/31 01:35:10;;;;;;;34.40;23.17;;;8.90;99.90;;;;;;5052921;28;20260;-64
2022/03/31 01:37:36;;;;;;;34.67;23.53;;;8.80;99.90;;;;;;5052840;28;20254;-63
2022/03/31 01:40:02;;;;;;;33.10;23.50;;;8.90;99.90;;;;;;5053089;28;20240;-63
2022/03/31 01:42:28;;;;;;;34.80;23.63;;;8.90;99.90;;;;;;5052990;28;20176;-63
2022/03/31 01:44:54;;;;;;;35.03;23.93;;;8.90;99.90;;;;;;5053148;28;20205;-63
2022/03/31 01:47:20;;;;;;;34.93;22.70;;;8.90;99.90;;;;;;5052924;28;20166;-63
2022/03/31 01:49:46;;;;;;;32.80;23.80;;;9.00;99.90;;;;;;5052679;28;20589;-64
2022/03/31 01:52:11;;;;;;;36.43;23.37;;;9.00;99.90;;;;;;5051581;28;20525;-63
2022/03/31 01:54:37;;;;;;;34.70;23.87;;;9.00;99.90;;;;;;5052472;28;20252;-63
2022/03/31 01:57:03;;;;;;;38.70;23.70;;;9.00;99.90;;;;;;5051732;28;20259;-62
2022/03/31 01:59:46;;;;;;;35.83;23.50;;;8.90;99.90;;;;;;5052904;28;20171;-63
2022/03/31 02:02:14;;;;;;;38.17;24.30;;;8.90;99.90;;;;;;5051613;28;20180;-63
2022/03/31 02:04:40;;;;;;;37.30;24.27;;;9.00;99.90;;;;;;5050848;28;20169;-63
2022/03/31 02:07:07;;;;;;;38.57;24.23;;;9.10;99.90;;;;;;5052990;28;20227;-63
2022/03/31 02:09:33;;;;;;;38.80;24.90;;;9.10;99.90;;;;;;5052995;28;20173;-63
2022/03/31 02:11:58;;;;;;;39.20;25.17;;;9.10;99.90;;;;;;5052695;28;20214;-64
2022/03/31 02:14:25;;;;;;;38.30;24.73;;;9.00;99.90;;;;;;5052774;28;20271;-63
2022/03/31 02:16:51;;;;;;;38.67;25.10;;;9.10;99.90;;;;;;5051375;28;20207;-63
2022/03/31 02:19:17;;;;;;;38.80;24.60;;;9.20;99.90;;;;;;5052167;28;20201;-64
2022/03/31 02:21:43;;;;;;;27.30;20.07;;;9.20;99.90;;;;;;5052808;28;20184;-64
2022/03/31 02:24:09;;;;;;;30.63;19.37;;;9.20;99.90;;;;;;5052512;28;20169;-63
2022/03/31 02:26:36;;;;;;;23.90;15.97;;;8.90;99.90;;;;;;5052600;28;20219;-63
2022/03/31 02:29:03;;;;;;;24.80;16.13;;;8.60;99.90;;;;;;5052762;28;20212;-63
2022/03/31 02:31:29;;;;;;;23.47;16.37;;;8.30;99.90;;;;;;5052579;28;20189;-63
2022/03/31 02:33:55;;;;;;;23.63;14.73;;;8.10;99.90;;;;;;5050879;28;20173;-63
2022/03/31 02:36:22;;;;;;;15.10;11.63;;;8.10;99.90;;;;;;5052763;28;20165;-63
2022/03/31 02:38:48;;;;;;;16.00;12.80;;;7.90;99.90;;;;;;5052777;28;20248;-63
2022/03/31 02:41:13;;;;;;;16.27;9.60;;;8.00;99.90;;;;;;5054037;28;20205;-63
2022/03/31 02:43:39;;;;;;;12.03;10.43;;;7.90;99.90;;;;;;5056484;28;20173;-63
2022/03/31 02:46:05;;;;;;;14.70;9.80;;;7.80;99.90;;;;;;5056420;28;20252;-63
2022/03/31 02:48:30;;;;;;;14.40;10.20;;;7.70;99.90;;;;;;5055826;28;20177;-62
2022/03/31 02:50:56;;;;;;;11.90;9.67;;;7.70;99.90;;;;;;5056283;28;20165;-64
2022/03/31 02:56:06;;;;;;;15.40;9.93;;;7.90;99.90;;;;;;5056045;28;20270;-62
2022/03/31 02:58:32;;;;;;;10.70;9.60;;;7.90;99.90;;;;;;5056177;28;20173;-62
2022/03/31 03:00:58;;;;;;;12.57;10.23;;;8.00;99.90;;;;;;5055667;28;20184;-63
2022/03/31 03:03:24;;;;;;;14.33;9.60;;;7.90;99.90;;;;;;5055992;28;20173;-62
2022/03/31 03:05:49;;;;;;;13.17;10.37;;;7.80;99.90;;;;;;5054832;28;20261;-63
2022/03/31 03:08:15;;;;;;;10.80;9.67;;;7.90;99.90;;;;;;5055941;28;20226;-63
2022/03/31 03:10:42;;;;;;;16.87;10.00;;;8.00;99.90;;;;;;5055842;28;20735;-63
2022/03/31 03:13:08;;;;;;;13.00;10.20;;;8.10;99.90;;;;;;5055763;28;20185;-63
2022/03/31 03:15:34;;;;;;;10.63;9.40;;;8.30;99.90;;;;;;5055427;28;20181;-63
2022/03/31 03:17:59;;;;;;;13.03;9.40;;;8.40;99.90;;;;;;5055787;28;20254;-64
2022/03/31 03:20:25;;;;;;;11.40;9.10;;;8.40;99.90;;;;;;5054190;28;20181;-63
2022/03/31 03:22:52;;;;;;;14.07;9.80;;;8.30;99.90;;;;;;5055491;28;20161;-64
2022/03/31 03:25:20;;;;;;;14.80;9.53;;;8.20;99.90;;;;;;5055625;28;20193;-63
2022/03/31 03:27:48;;;;;;;10.83;8.90;;;8.10;99.90;;;;;;5055314;28;20176;-64
2022/03/31 03:30:18;;;;;;;11.77;9.70;;;7.90;99.90;;;;;;5055038;28;20174;-64
2022/03/31 03:32:45;;;;;;;12.40;9.40;;;7.80;99.90;;;;;;5055445;28;20165;-64
2022/03/31 03:35:12;;;;;;;11.33;8.90;;;7.90;99.90;;;;;;5054083;28;20535;-63
2022/03/31 03:37:39;;;;;;;11.00;9.30;;;7.80;99.90;;;;;;5055460;28;20171;-63
2022/03/31 03:40:06;;;;;;;11.57;9.17;;;7.70;99.90;;;;;;5055244;28;20275;-64
2022/03/31 03:42:33;;;;;;;13.53;8.50;;;7.70;99.90;;;;;;5055273;28;20177;-63
2022/03/31 03:45:00;;;;;;;10.30;7.73;;;7.70;99.90;;;;;;5054586;28;20691;-63
2022/03/31 03:47:26;;;;;;;9.80;7.47;;;7.50;99.90;;;;;;5054821;28;20648;-63
2022/03/31 03:49:52;;;;;;;9.07;7.20;;;7.40;99.90;;;;;;5055004;28;20256;-63
2022/03/31 03:52:18;;;;;;;10.23;7.50;;;7.40;99.90;;;;;;5054443;28;20593;-63
2022/03/31 03:54:44;;;;;;;9.43;7.60;;;7.20;99.90;;;;;;5054234;28;20302;-63
2022/03/31 03:57:09;;;;;;;9.40;7.53;;;7.10;99.90;;;;;;5054861;28;20335;-63
2022/03/31 03:59:35;;;;;;;11.53;8.87;;;6.90;99.90;;;;;;5054309;28;20181;-63
2022/03/31 04:02:02;;;;;;;11.37;8.40;;;6.90;99.90;;;;;;5054681;28;20192;-63
2022/03/31 04:04:31;;;;;;;11.10;8.70;;;6.90;99.90;;;;;;5054634;28;20173;-63
2022/03/31 04:06:57;;;;;;;14.40;8.53;;;6.90;99.90;;;;;;5054738;28;20591;-63
2022/03/31 04:09:24;;;;;;;12.90;9.27;;;6.90;99.90;;;;;;5053328;28;20181;-63
2022/03/31 04:11:50;;;;;;;10.90;9.80;;;6.70;99.90;;;;;;5053742;28;20184;-64
2022/03/31 04:14:17;;;;;;;12.57;9.97;;;6.50;99.90;;;;;;5054196;28;20227;-63
2022/03/31 04:16:43;;;;;;;9.90;8.60;;;6.30;99.90;;;;;;5053206;28;20219;-63
2022/03/31 04:19:09;;;;;;;9.43;7.57;;;6.10;99.90;;;;;;5054648;28;20651;-64
2022/03/31 04:21:36;;;;;;;8.13;6.47;;;5.70;99.90;;;;;;5054367;28;20177;-64
2022/03/31 04:24:02;;;;;;;6.73;6.13;;;5.50;99.90;;;;;;5053964;28;20181;-62
2022/03/31 04:26:28;;;;;;;10.07;7.37;;;5.50;99.90;;;;;;5053910;28;20213;-63
2022/03/31 04:28:53;;;;;;;9.93;8.70;;;5.40;99.90;;;;;;5053856;28;20170;-63
2022/03/31 04:31:19;;;;;;;8.03;7.23;;;5.10;99.90;;;;;;5054092;28;20180;-62
2022/03/31 04:33:45;;;;;;;6.63;5.83;;;5.20;99.90;;;;;;5053790;28;20173;-63
2022/03/31 04:36:10;;;;;;;5.87;5.27;;;5.10;99.90;;;;;;5054026;28;20173;-63
2022/03/31 04:38:36;;;;;;;5.43;5.00;;;5.10;99.90;;;;;;5053793;28;20177;-62
2022/03/31 04:41:01;;;;;;;6.33;5.30;;;5.10;99.90;;;;;;5053739;28;20564;-63
2022/03/31 04:43:27;;;;;;;5.30;4.80;;;5.00;99.90;;;;;;5053218;28;20178;-64
2022/03/31 04:45:53;;;;;;;5.07;4.70;;;4.80;99.90;;;;;;5053724;28;20240;-63
2022/03/31 04:48:19;;;;;;;4.40;4.10;;;4.70;99.90;;;;;;5052303;28;20169;-63
2022/03/31 04:50:44;;;;;;;5.87;4.97;;;4.60;99.90;;;;;;5053341;28;20177;-63
2022/03/31 04:53:11;;;;;;;8.00;7.20;;;4.40;99.90;;;;;;5053310;28;20200;-64
2022/03/31 04:55:38;;;;;;;8.53;7.70;;;4.40;99.90;;;;;;5052658;28;20217;-63
2022/03/31 04:58:03;;;;;;;8.00;7.20;;;4.30;99.90;;;;;;5053054;28;20261;-63
2022/03/31 05:00:29;;;;;;;7.43;6.73;;;4.30;99.90;;;;;;5052968;28;20248;-63
2022/03/31 05:02:55;;;;;;;6.80;6.20;;;4.00;99.90;;;;;;5052394;28;20173;-63
2022/03/31 05:05:21;;;;;;;7.97;7.20;;;4.00;99.90;;;;;;5053157;28;20205;-63
2022/03/31 05:07:47;;;;;;;8.90;8.00;;;4.00;99.90;;;;;;5053060;28;20229;-63
2022/03/31 05:10:12;;;;;;;11.27;8.13;;;4.00;99.90;;;;;;5052437;28;20181;-63
2022/03/31 05:12:38;;;;;;;9.80;8.53;;;3.80;99.90;;;;;;5052541;28;20206;-63
2022/03/31 05:15:04;;;;;;;6.83;6.13;;;3.60;99.90;;;;;;5052765;28;20600;-64
2022/03/31 05:17:35;;;;;;;6.73;6.07;;;3.60;99.90;;;;;;5052612;28;20177;-63
2022/03/31 05:20:05;;;;;;;5.03;4.53;;;3.50;99.90;;;;;;5052504;28;20257;-62
2022/03/31 05:22:33;;;;;;;4.27;3.97;;;3.40;99.90;;;;;;5052340;28;20176;-63
2022/03/31 05:24:59;;;;;;;4.03;3.73;;;3.40;99.90;;;;;;5052212;28;20686;-63
2022/03/31 05:27:25;;;;;;;4.10;3.83;;;3.50;99.90;;;;;;5050355;28;20602;-64
2022/03/31 05:29:50;;;;;;;3.80;3.40;;;3.60;99.90;;;;;;5051816;28;20267;-64
2022/03/31 05:32:16;;;;;;;4.10;3.80;;;3.60;99.90;;;;;;5052539;28;20208;-64
2022/03/31 05:34:41;;;;;;;3.30;3.10;;;3.40;99.90;;;;;;5051307;28;20259;-65
2022/03/31 05:37:07;;;;;;;4.13;3.83;;;3.40;99.90;;;;;;5050500;28;20272;-64
2022/03/31 05:39:34;;;;;;;4.10;3.80;;;3.40;99.90;;;;;;5052270;28;20181;-63
2022/03/31 05:41:59;;;;;;;4.00;3.80;;;3.50;99.90;;;;;;5051955;28;20230;-64
2022/03/31 05:44:25;;;;;;;4.00;3.80;;;3.50;99.90;;;;;;5051952;28;20188;-64
2022/03/31 05:46:51;;;;;;;5.20;4.80;;;3.50;99.90;;;;;;5051003;28;20216;-63
2022/03/31 05:49:17;;;;;;;5.00;4.67;;;3.60;99.90;;;;;;5051374;28;20173;-64
2022/03/31 05:51:43;;;;;;;3.20;3.00;;;3.70;99.90;;;;;;5051519;28;20243;-64
2022/03/31 05:54:09;;;;;;;4.63;4.33;;;3.60;99.90;;;;;;5050932;28;20215;-62
2022/03/31 05:56:34;;;;;;;5.40;4.93;;;3.50;99.90;;;;;;5051756;28;20267;-64
2022/03/31 05:59:00;;;;;;;5.50;4.87;;;3.60;99.90;;;;;;5052066;28;20177;-64
2022/03/31 06:01:26;;;;;;;6.07;5.30;;;3.70;99.90;;;;;;5050887;28;20171;-63
2022/03/31 06:03:52;;;;;;;5.03;4.73;;;3.80;99.90;;;;;;5052279;28;20169;-63
2022/03/31 06:06:18;;;;;;;6.20;5.60;;;3.80;99.90;;;;;;5051023;28;20208;-64
2022/03/31 06:08:44;;;;;;;5.40;4.90;;;3.80;99.90;;;;;;5051769;28;20184;-64
2022/03/31 06:11:09;;;;;;;9.30;7.97;;;3.90;99.90;;;;;;5050627;28;20188;-64
2022/03/31 06:13:35;;;;;;;5.20;4.80;;;4.10;99.90;;;;;;5052194;28;20177;-64
2022/03/31 06:16:01;;;;;;;5.60;5.10;;;4.10;99.90;;;;;;5055032;28;20174;-64
2022/03/31 06:18:26;;;;;;;6.23;5.63;;;4.00;99.90;;;;;;5037159;28;20169;-64
2022/03/31 06:20:52;;;;;;;6.73;6.03;;;3.90;99.90;;;;;;5055910;28;20715;-64
2022/03/31 06:23:18;;;;;;;5.70;5.20;;;4.00;99.90;;;;;;5055136;28;20734;-63
2022/03/31 06:25:44;;;;;;;6.20;5.60;;;3.80;99.90;;;;;;5054638;28;20240;-63
2022/03/31 06:28:10;;;;;;;5.93;5.40;;;3.90;99.90;;;;;;5054771;28;20195;-63
2022/03/31 06:30:36;;;;;;;7.53;6.80;;;4.10;99.90;;;;;;5052030;28;20187;-65
2022/03/31 06:33:02;;;;;;;6.00;5.50;;;4.20;99.90;;;;;;5054169;28;20836;-63
2022/03/31 06:35:28;;;;;;;5.90;5.40;;;4.30;99.90;;;;;;5054314;28;20181;-64
2022/03/31 06:37:54;;;;;;;6.50;5.50;;;4.30;99.90;;;;;;5053521;28;20184;-65
2022/03/31 06:40:20;;;;;;;6.10;5.43;;;4.20;99.90;;;;;;5053034;28;20653;-66
2022/03/31 06:42:47;;;;;;;6.23;5.70;;;4.20;99.90;;;;;;5054013;28;20193;-65
2022/03/31 06:45:15;;;;;;;5.40;5.00;;;4.30;99.90;;;;;;5053755;28;20338;-64
2022/03/31 06:47:42;;;;;;;6.77;6.17;;;4.10;99.90;;;;;;5053294;28;20831;-63
2022/03/31 06:50:08;;;;;;;6.17;5.53;;;4.20;99.90;;;;;;5054429;28;20173;-63
2022/03/31 06:52:34;;;;;;;5.60;5.20;;;4.20;99.90;;;;;;5054815;28;20181;-65
2022/03/31 06:55:00;;;;;;;6.60;5.90;;;3.90;99.90;;;;;;5062857;28;20242;-65
2022/03/31 06:57:26;;;;;;;7.03;5.97;;;3.70;99.90;;;;;;5051413;28;20188;-65
2022/03/31 06:59:51;;;;;;;7.63;6.10;;;3.80;99.90;;;;;;5062132;28;20188;-64
2022/03/31 07:02:17;;;;;;;6.67;5.90;;;3.80;99.90;;;;;;5071114;28;20172;-63
2022/03/31 07:04:43;;;;;;;7.20;6.50;;;3.80;99.90;;;;;;5073352;28;20627;-63
2022/03/31 07:07:09;;;;;;;7.13;6.53;;;3.90;99.90;;;;;;5057056;28;20562;-63
2022/03/31 07:09:35;;;;;;;7.03;6.40;;;4.00;99.90;;;;;;5055938;28;20605;-64
2022/03/31 07:12:00;;;;;;;7.27;6.67;;;4.10;99.90;;;;;;5059835;28;20172;-63
2022/03/31 07:14:26;;;;;;;6.40;5.90;;;3.80;99.90;;;;;;5085230;28;20255;-63
2022/03/31 07:16:52;;;;;;;6.57;5.93;;;3.80;99.90;;;;;;5066953;28;20533;-64
2022/03/31 07:19:17;;;;;;;8.90;6.50;;;3.80;99.90;;;;;;5072683;28;20643;-64
2022/03/31 07:21:43;;;;;;;8.07;7.27;;;3.80;99.90;;;;;;5073335;28;20172;-64
2022/03/31 07:24:09;;;;;;;7.40;6.70;;;4.00;99.90;;;;;;5071109;28;20172;-64
2022/03/31 07:26:35;;;;;;;9.20;7.60;;;4.10;99.90;;;;;;5069392;28;20651;-63
2022/03/31 07:29:00;;;;;;;8.30;6.70;;;4.20;99.90;;;;;;5051403;28;20218;-64
2022/03/31 07:31:28;;;;;;;7.50;6.80;;;4.20;99.90;;;;;;5052387;28;20177;-64
2022/03/31 07:33:54;;;;;;;9.20;7.67;;;4.20;99.90;;;;;;5069566;28;20527;-62
2022/03/31 07:36:20;;;;;;;7.33;6.63;;;4.50;99.90;;;;;;5063251;28;20184;-65
2022/03/31 07:38:46;;;;;;;10.33;6.93;;;4.50;99.90;;;;;;5063252;28;20200;-63
2022/03/31 07:41:12;;;;;;;7.40;6.70;;;4.40;99.90;;;;;;5065450;28;20306;-63
2022/03/31 07:43:38;;;;;;;9.00;7.00;;;4.20;99.90;;;;;;5065038;28;20180;-63
2022/03/31 07:46:05;;;;;;;7.30;6.60;;;4.40;99.90;;;;;;5064071;28;20695;-65
2022/03/31 07:48:31;;;;;;;7.63;6.93;;;4.40;99.90;;;;;;5063720;28;20192;-65
2022/03/31 07:50:58;;;;;;;7.40;6.70;;;4.40;99.90;;;;;;5080984;28;20307;-64
2022/03/31 07:53:24;;;;;;;7.57;6.97;;;4.60;99.90;;;;;;5067064;28;20269;-63
2022/03/31 07:55:50;;;;;;;6.93;6.23;;;4.70;99.90;;;;;;5081662;28;20223;-64
2022/03/31 07:58:16;;;;;;;6.40;5.90;;;4.80;99.90;;;;;;5074951;28;20173;-64
2022/03/31 08:00:42;;;;;;;7.77;6.57;;;4.90;99.90;;;;;;5086953;28;20213;-63
2022/03/31 08:03:08;;;;;;;6.63;6.03;;;4.90;99.90;;;;;;5064632;28;20218;-64
2022/03/31 08:05:37;;;;;;;6.63;6.03;;;5.10;99.90;;;;;;5057850;28;20212;-64
2022/03/31 08:08:03;;;;;;;7.30;6.60;;;5.00;99.90;;;;;;5073190;28;20583;-64
2022/03/31 08:10:29;;;;;;;7.13;6.43;;;5.10;99.90;;;;;;5062946;28;20223;-65
2022/03/31 08:12:55;;;;;;;6.40;5.80;;;5.20;99.90;;;;;;5085511;28;20172;-66
2022/03/31 08:15:23;;;;;;;6.90;6.30;;;5.20;99.90;;;;;;5076220;28;20183;-64
2022/03/31 08:17:49;;;;;;;7.17;6.47;;;5.00;99.90;;;;;;5082472;28;20176;-65
2022/03/31 08:20:15;;;;;;;7.63;6.93;;;5.10;99.90;;;;;;5059767;28;20184;-63
2022/03/31 08:22:41;;;;;;;6.60;6.00;;;5.40;99.90;;;;;;5075899;28;20233;-63
2022/03/31 08:25:09;;;;;;;7.10;6.10;;;5.50;99.90;;;;;;5080149;28;20204;-65
2022/03/31 08:27:35;;;;;;;6.80;6.20;;;5.70;99.90;;;;;;5067186;28;20176;-63
2022/03/31 08:30:06;;;;;;;6.93;6.23;;;5.60;99.90;;;;;;5076962;28;20191;-64
2022/03/31 08:32:35;;;;;;;8.90;6.80;;;5.50;99.90;;;;;;5072790;28;20177;-64
2022/03/31 08:35:02;;;;;;;7.13;6.43;;;5.50;99.90;;;;;;5062428;28;20526;-64
2022/03/31 08:37:27;;;;;;;9.80;7.23;;;5.30;99.90;;;;;;5079329;28;20168;-65
2022/03/31 08:39:53;;;;;;;8.07;7.27;;;5.10;99.90;;;;;;5080676;28;20172;-63
2022/03/31 08:42:19;;;;;;;7.90;7.00;;;5.20;99.90;;;;;;5069302;28;20176;-65
2022/03/31 08:44:49;;;;;;;8.80;7.80;;;5.30;99.90;;;;;;5079319;28;20564;-65
2022/03/31 08:47:17;;;;;;;7.77;6.40;;;5.40;99.90;;;;;;5069853;28;20219;-64
2022/03/31 08:49:44;;;;;;;5.77;5.37;;;5.40;99.90;;;;;;5080439;28;20241;-63
2022/03/31 08:52:10;;;;;;;5.90;5.43;;;5.40;99.90;;;;;;5066414;28;20438;-63
2022/03/31 08:54:36;;;;;;;7.83;7.03;;;5.20;99.90;;;;;;5087492;28;20276;-64
2022/03/31 08:57:02;;;;;;;5.93;5.37;;;5.20;99.90;;;;;;5073920;28;20184;-64
2022/03/31 08:59:28;;;;;;;7.23;5.90;;;5.30;99.90;;;;;;5079875;28;20172;-63
2022/03/31 09:01:54;;;;;;;5.93;5.43;;;5.40;99.90;;;;;;5057570;28;20192;-64
2022/03/31 09:04:21;;;;;;;7.20;5.47;;;5.60;99.90;;;;;;5065509;28;20472;-65
2022/03/31 09:07:07;;;;;;;5.97;5.10;;;5.60;99.90;;;;;;5068852;28;20219;-63
2022/03/31 09:09:47;;;;;;;5.77;5.27;;;5.70;99.90;;;;;;5065027;28;20168;-66
2022/03/31 09:12:12;;;;;;;6.30;5.33;;;5.90;99.90;;;;;;5084077;28;20160;-65
2022/03/31 09:14:38;;;;;;;6.53;5.90;;;6.20;99.90;;;;;;5059259;28;20193;-64
2022/03/31 09:17:12;;;;;;;5.97;5.20;;;6.30;99.90;;;;;;5087730;28;20226;-65
2022/03/31 09:19:38;;;;;;;4.57;4.27;;;6.20;99.90;;;;;;5067901;28;20669;-65
2022/03/31 09:22:04;;;;;;;4.90;4.50;;;6.10;99.90;;;;;;5064908;28;20165;-65
2022/03/31 09:24:31;;;;;;;5.53;5.03;;;6.00;99.90;;;;;;5073107;28;20180;-64
2022/03/31 09:26:58;;;;;;;9.00;5.20;;;6.00;99.90;;;;;;5075327;28;20219;-65
2022/03/31 09:29:26;;;;;;;8.40;5.87;;;6.00;99.90;;;;;;5072929;28;20270;-64
2022/03/31 09:31:52;;;;;;;8.17;5.40;;;6.20;99.90;;;;;;5066372;28;20184;-64
2022/03/31 09:34:19;;;;;;;6.23;5.10;;;6.20;99.90;;;;;;5066308;28;20183;-63
2022/03/31 09:36:52;;;;;;;5.27;4.80;;;6.40;99.90;;;;;;5086345;28;20236;-63
2022/03/31 09:39:20;;;;;;;5.50;5.00;;;6.30;99.90;;;;;;5064084;28;20255;-64
2022/03/31 09:41:50;;;;;;;5.80;5.30;;;6.30;99.90;;;;;;5080365;28;20281;-63
2022/03/31 09:44:19;;;;;;;8.33;5.70;;;6.60;99.90;;;;;;5080193;28;20229;-63
2022/03/31 09:46:46;;;;;;;5.30;4.80;;;6.80;99.90;;;;;;5070728;28;20212;-64
2022/03/31 09:49:38;;;;;;;6.93;4.77;;;6.90;99.90;;;;;;5059610;28;20172;-63
2022/03/31 09:52:07;;;;;;;5.30;4.77;;;6.70;99.90;;;;;;5063298;28;20213;-63
2022/03/31 09:54:34;;;;;;;6.90;5.47;;;6.70;99.90;;;;;;5076769;28;20256;-63
2022/03/31 09:57:02;;;;;;;7.37;6.03;;;7.00;99.90;;;;;;5068067;28;20180;-64
2022/03/31 09:59:38;;;;;;;5.07;4.67;;;7.30;99.90;;;;;;5072199;28;20183;-63
2022/03/31 10:02:04;;;;;;;5.43;4.17;;;7.30;99.90;;;;;;5062829;28;20184;-64
2022/03/31 10:04:31;;;;;;;4.57;4.17;;;7.30;99.90;;;;;;5070007;28;20177;-64
2022/03/31 10:06:58;;;;;;;8.00;4.50;;;7.10;99.90;;;;;;5050970;28;20266;-64
2022/03/31 10:09:24;;;;;;;5.47;4.87;;;7.20;99.90;;;;;;5051937;28;20191;-64
2022/03/31 10:12:05;;;;;;;6.93;5.33;;;7.40;99.90;;;;;;5066207;28;20179;-63
2022/03/31 10:14:46;;;;;;;7.30;5.87;;;7.20;99.90;;;;;;5070030;28;20202;-65
2022/03/31 10:17:12;;;;;;;7.80;4.50;;;7.40;99.90;;;;;;5062713;28;20214;-63
2022/03/31 10:19:44;;;;;;;5.50;5.00;;;7.20;99.90;;;;;;5063925;28;20291;-64
2022/03/31 10:25:07;;;;;;;4.53;4.23;;;6.80;99.90;;;;;;5051366;28;20207;-63
2022/03/31 10:27:34;;;;;;;6.43;5.23;;;6.70;99.90;;;;;;5050054;28;20267;-65
2022/03/31 10:30:29;;;;;;;9.60;5.20;;;6.90;99.90;;;;;;5056867;28;20648;-63
2022/03/31 10:33:04;;;;;;;7.47;5.47;;;7.20;99.90;;;;;;5020450;28;20187;-63
2022/03/31 10:35:38;;;;;;;5.20;4.70;;;7.30;99.90;;;;;;5008225;28;20215;-64
2022/03/31 10:38:18;;;;;;;12.47;4.80;;;7.60;99.90;;;;;;5009289;28;20198;-65
2022/03/31 10:40:49;;;;;;;5.70;4.33;;;7.80;99.90;;;;;;5008705;28;20181;-64
2022/03/31 10:43:26;;;;;;;4.10;3.70;;;8.10;99.90;;;;;;5003658;28;20241;-63
2022/03/31 10:45:54;;;;;;;4.40;4.00;;;8.40;99.90;;;;;;4997299;28;20301;-64
2022/03/31 10:48:26;;;;;;;3.77;3.40;;;8.60;99.90;;;;;;5008198;28;20174;-64
2022/03/31 10:51:10;;;;;;;3.80;3.60;;;8.80;99.90;;;;;;5005179;28;20306;-65
2022/03/31 10:53:39;;;;;;;4.20;3.80;;;8.90;99.90;;;;;;5008348;28;20197;-63
2022/03/31 10:56:26;;;;;;;3.50;3.30;;;8.50;99.90;;;;;;5004955;28;20225;-64
2022/03/31 10:58:54;;;;;;;6.47;4.40;;;8.10;99.90;;;;;;4990262;28;20183;-65
2022/03/31 11:01:21;;;;;;;7.67;5.80;;;8.20;99.90;;;;;;5001308;28;20190;-63
2022/03/31 11:03:50;;;;;;;11.23;6.13;;;8.50;99.90;;;;;;5009948;28;20646;-64
2022/03/31 11:06:17;;;;;;;7.00;6.30;;;8.70;99.90;;;;;;5005739;28;20220;-62
2022/03/31 11:08:46;;;;;;;6.60;6.13;;;8.80;99.90;;;;;;5017372;28;20216;-63
2022/03/31 11:11:29;;;;;;;8.87;6.97;;;8.90;99.90;;;;;;5057991;28;20588;-63
2022/03/31 11:13:59;;;;;;;7.90;7.20;;;8.60;99.90;;;;;;5065113;28;20177;-64
2022/03/31 11:16:37;;;;;;;8.47;7.60;;;8.50;99.90;;;;;;5062770;28;20187;-64
2022/03/31 11:19:04;;;;;;;9.70;8.80;;;8.50;99.90;;;;;;5069061;28;20181;-64
2022/03/31 11:21:42;;;;;;;7.97;7.30;;;8.60;99.90;;;;;;5067176;28;20181;-65
2022/03/31 11:24:09;;;;;;;8.30;7.50;;;8.70;99.90;;;;;;5073437;28;20176;-63
2022/03/31 11:26:40;;;;;;;7.77;5.80;;;9.00;99.90;;;;;;5058416;28;20200;-64
2022/03/31 11:29:11;;;;;;;6.27;5.80;;;9.40;99.90;;;;;;5052633;28;20265;-64
2022/03/31 11:31:41;;;;;;;7.00;5.60;;;9.50;99.10;;;;;;5059158;28;20216;-64
2022/03/31 11:34:24;;;;;;;6.80;5.63;;;9.40;99.00;;;;;;5056867;28;20204;-63
2022/03/31 11:36:52;;;;;;;6.37;4.70;;;9.30;98.90;;;;;;5056148;28;20679;-64
2022/03/31 11:39:19;;;;;;;7.13;4.50;;;9.20;99.10;;;;;;5072345;28;20625;-62
2022/03/31 11:41:45;;;;;;;5.47;4.87;;;9.20;99.30;;;;;;5088083;28;20172;-64
2022/03/31 11:44:11;;;;;;;5.23;4.73;;;9.00;99.30;;;;;;5069565;28;20256;-63
2022/03/31 11:46:48;;;;;;;5.40;4.90;;;8.90;99.50;;;;;;5078262;28;20300;-64
2022/03/31 11:49:14;;;;;;;10.67;5.67;;;9.00;99.90;;;;;;5054618;28;20177;-64
2022/03/31 11:51:39;;;;;;;7.90;5.67;;;9.10;99.60;;;;;;5055631;28;20683;-64
2022/03/31 11:54:08;;;;;;;6.83;5.60;;;9.20;99.30;;;;;;5085913;28;20182;-63
2022/03/31 11:56:34;;;;;;;7.43;6.20;;;9.50;98.60;;;;;;5054169;28;20256;-64
2022/03/31 11:59:00;;;;;;;7.20;6.50;;;10.00;97.00;;;;;;5062066;28;20217;-65
2022/03/31 12:01:33;;;;;;;11.40;6.77;;;10.40;95.40;;;;;;5065377;28;20177;-63
2022/03/31 12:03:59;;;;;;;7.30;6.60;;;10.80;94.20;;;;;;5054340;28;20184;-63
2022/03/31 12:06:26;;;;;;;6.73;6.20;;;11.20;93.20;;;;;;5062207;28;20208;-64
2022/03/31 12:08:55;;;;;;;7.77;6.40;;;11.60;91.60;;;;;;5076938;28;20190;-65
2022/03/31 12:11:22;;;;;;;6.50;6.00;;;11.80;90.10;;;;;;5062848;28;20212;-64
2022/03/31 12:13:53;;;;;;;7.47;6.70;;;11.90;89.50;;;;;;5071876;28;20177;-64
2022/03/31 12:16:20;;;;;;;7.93;6.63;;;11.70;89.40;;;;;;5062006;28;20192;-64
2022/03/31 12:18:55;;;;;;;6.77;6.33;;;11.60;90.30;;;;;;5074583;28;20179;-65
2022/03/31 12:21:23;;;;;;;6.97;6.30;;;11.80;89.40;;;;;;5066950;28;20635;-65
2022/03/31 12:23:50;;;;;;;6.37;5.97;;;11.70;89.10;;;;;;5070797;28;20176;-63
2022/03/31 12:26:20;;;;;;;9.83;6.27;;;11.80;88.10;;;;;;5063067;28;20295;-65
2022/03/31 12:28:47;;;;;;;11.07;5.87;;;11.70;88.00;;;;;;5061608;28;20181;-62
2022/03/31 12:31:29;;;;;;;6.13;4.70;;;11.60;87.50;;;;;;5060635;28;20183;-63
2022/03/31 12:33:56;;;;;;;5.80;5.30;;;11.20;88.70;;;;;;5071436;28;20200;-63
2022/03/31 12:36:33;;;;;;;9.20;5.97;;;11.00;90.80;;;;;;5070158;28;20674;-63
2022/03/31 12:39:02;;;;;;;5.20;4.70;;;10.70;91.40;;;;;;5062951;28;20177;-62
2022/03/31 12:41:34;;;;;;;5.77;5.20;;;10.50;91.00;;;;;;5061046;28;20189;-64
2022/03/31 12:44:16;;;;;;;6.07;4.37;;;10.30;91.30;;;;;;5084020;28;20172;-64
2022/03/31 12:46:52;;;;;;;7.10;4.30;;;10.30;90.40;;;;;;5087244;28;20207;-64
2022/03/31 12:49:39;;;;;;;5.43;4.20;;;10.40;90.40;;;;;;5078618;28;20245;-64
2022/03/31 12:52:17;;;;;;;4.90;4.50;;;10.40;89.30;;;;;;5055292;28;20247;-64
2022/03/31 12:54:56;;;;;;;6.40;4.47;;;10.50;89.40;;;;;;5057669;28;20230;-64
2022/03/31 12:57:27;;;;;;;17.13;5.40;;;10.90;87.60;;;;;;5054068;28;20185;-64
2022/03/31 13:00:12;;;;;;;10.70;6.00;;;10.90;86.90;;;;;;5083414;28;20184;-64